createdAt,value
2022-12-07T00:00:01.643Z,68.06
2022-12-07T00:02:39.869Z,68.14
2022-12-07T00:05:12.680Z,67.94
2022-12-07T00:07:44.854Z,68.06
2022-12-07T00:10:16.961Z,68.30
2022-12-07T00:12:49.064Z,68.78
2022-12-07T00:15:21.234Z,68.78
2022-12-07T00:17:53.297Z,68.74
2022-12-07T00:20:25.363Z,68.56
2022-12-07T00:22:57.365Z,68.31
2022-12-07T00:25:30.004Z,68.30
2022-12-07T00:28:02.172Z,68.21
2022-12-07T00:30:34.543Z,68.25
2022-12-07T00:33:06.710Z,68.30
2022-12-07T00:35:38.777Z,68.19
2022-12-07T00:38:10.945Z,68.10
2022-12-07T00:40:43.110Z,68.02
2022-12-07T00:43:15.378Z,68.21
2022-12-07T00:45:47.513Z,69.12
2022-12-07T00:48:19.619Z,69.10
2022-12-07T00:50:52.190Z,69.01
2022-12-07T00:53:25.178Z,69.06
2022-12-07T00:55:57.857Z,68.95
2022-12-07T00:58:30.022Z,68.82
2022-12-07T01:01:03.952Z,68.79
2022-12-07T01:03:37.754Z,68.56
2022-12-07T01:06:10.108Z,68.72
2022-12-07T01:08:42.274Z,68.74
2022-12-07T01:11:17.517Z,68.51
2022-12-07T01:13:51.941Z,68.72
2022-12-07T01:16:26.107Z,69.53
2022-12-07T01:19:00.282Z,69.61
2022-12-07T01:21:35.980Z,69.64
2022-12-07T01:24:13.801Z,69.49
2022-12-07T01:26:45.881Z,69.16
2022-12-07T01:29:18.044Z,69.18
2022-12-07T01:31:52.338Z,68.89
2022-12-07T01:34:24.629Z,68.86
2022-12-07T01:36:56.593Z,68.76
2022-12-07T01:39:29.069Z,68.77
2022-12-07T01:42:01.134Z,68.62
2022-12-07T01:44:34.320Z,68.79
2022-12-07T01:47:07.413Z,69.83
2022-12-07T01:49:45.111Z,69.91
2022-12-07T01:52:20.764Z,69.94
2022-12-07T01:54:55.793Z,69.61
2022-12-07T01:57:28.611Z,69.23
2022-12-07T02:00:02.120Z,69.28
2022-12-07T02:02:50.298Z,69.25
2022-12-07T02:05:24.134Z,68.88
2022-12-07T02:07:58.781Z,68.99
2022-12-07T02:10:33.504Z,68.93
2022-12-07T02:13:09.251Z,69.15
2022-12-07T02:15:46.787Z,69.73
2022-12-07T02:18:24.822Z,69.98
2022-12-07T02:21:06.821Z,69.63
2022-12-07T02:24:04.896Z,69.26
2022-12-07T02:27:10.343Z,69.50
2022-12-07T02:29:49.215Z,69.26
2022-12-07T02:32:28.706Z,68.95
2022-12-07T02:35:08.487Z,69.22
2022-12-07T02:37:51.304Z,68.90
2022-12-07T02:40:27.567Z,69.00
2022-12-07T02:43:05.001Z,69.22
2022-12-07T02:45:41.106Z,69.95
2022-12-07T02:48:18.061Z,69.94
2022-12-07T02:50:52.962Z,69.71
2022-12-07T02:53:37.237Z,69.57
2022-12-07T02:56:19.137Z,69.45
2022-12-07T02:59:05.060Z,69.10
2022-12-07T03:01:48.638Z,69.30
2022-12-07T03:04:34.861Z,69.12
2022-12-07T03:07:14.125Z,69.12
2022-12-07T03:09:55.998Z,68.79
2022-12-07T03:12:33.923Z,69.19
2022-12-07T03:15:12.609Z,69.67
2022-12-07T03:17:47.951Z,69.73
2022-12-07T03:20:24.247Z,69.61
2022-12-07T03:22:59.163Z,69.26
2022-12-07T03:25:33.040Z,69.14
2022-12-07T03:28:08.192Z,69.06
2022-12-07T03:30:47.278Z,69.11
2022-12-07T03:33:25.847Z,68.88
2022-12-07T03:36:03.535Z,68.72
2022-12-07T03:38:40.308Z,68.78
2022-12-07T03:41:18.521Z,68.64
2022-12-07T03:43:51.099Z,68.71
2022-12-07T03:46:35.171Z,69.44
2022-12-07T03:49:14.475Z,69.29
2022-12-07T03:51:53.401Z,69.16
2022-12-07T03:54:33.249Z,69.23
2022-12-07T03:57:08.070Z,69.00
2022-12-07T03:59:42.602Z,68.87
2022-12-07T04:02:16.600Z,68.81
2022-12-07T04:04:49.188Z,68.88
2022-12-07T04:07:22.684Z,68.57
2022-12-07T04:09:55.937Z,68.81
2022-12-07T04:12:28.250Z,68.57
2022-12-07T04:15:00.621Z,68.55
2022-12-07T04:17:33.264Z,69.30
2022-12-07T04:20:06.106Z,69.19
2022-12-07T04:22:38.711Z,69.07
2022-12-07T04:25:12.019Z,69.24
2022-12-07T04:27:44.322Z,68.83
2022-12-07T04:30:17.096Z,68.95
2022-12-07T04:32:49.272Z,68.84
2022-12-07T04:35:21.443Z,68.67
2022-12-07T04:37:54.120Z,68.71
2022-12-07T04:40:26.902Z,68.58
2022-12-07T04:42:59.171Z,68.47
2022-12-07T04:45:31.339Z,68.55
2022-12-07T04:48:03.505Z,69.44
2022-12-07T04:50:44.524Z,69.40
2022-12-07T04:53:18.589Z,69.44
2022-12-07T04:55:51.066Z,69.33
2022-12-07T04:58:23.334Z,68.96
2022-12-07T05:00:58.977Z,68.90
2022-12-07T05:03:31.158Z,68.79
2022-12-07T05:06:03.225Z,68.67
2022-12-07T05:08:36.008Z,68.70
2022-12-07T05:11:09.915Z,68.68
2022-12-07T05:13:42.072Z,68.52
2022-12-07T05:16:14.156Z,68.57
2022-12-07T05:18:46.821Z,69.31
2022-12-07T05:21:19.189Z,69.46
2022-12-07T05:23:51.254Z,69.38
2022-12-07T05:26:23.217Z,69.12
2022-12-07T05:28:56.883Z,68.95
2022-12-07T05:31:29.809Z,68.83
2022-12-07T05:34:02.181Z,68.78
2022-12-07T05:36:35.060Z,68.81
2022-12-07T05:39:07.329Z,68.77
2022-12-07T05:41:56.903Z,68.74
2022-12-07T05:44:29.607Z,68.66
2022-12-07T05:47:02.162Z,68.86
2022-12-07T05:49:34.533Z,69.20
2022-12-07T05:52:07.275Z,69.63
2022-12-07T05:54:39.481Z,69.33
2022-12-07T05:57:11.545Z,69.00
2022-12-07T05:59:44.013Z,69.00
2022-12-07T06:02:18.050Z,68.83
2022-12-07T06:04:50.486Z,68.99
2022-12-07T06:07:22.775Z,68.74
2022-12-07T06:09:54.737Z,68.83
2022-12-07T06:12:40.626Z,68.43
2022-12-07T06:15:14.540Z,69.06
2022-12-07T06:17:47.007Z,69.97
2022-12-07T06:20:19.318Z,70.40
2022-12-07T06:22:51.548Z,70.67
2022-12-07T06:25:23.876Z,70.68
2022-12-07T06:27:56.488Z,70.92
2022-12-07T06:30:28.996Z,70.73
2022-12-07T06:33:03.005Z,70.82
2022-12-07T06:35:36.479Z,71.59
2022-12-07T06:38:09.065Z,73.50
2022-12-07T06:40:41.262Z,73.25
2022-12-07T06:43:13.394Z,72.60
2022-12-07T06:45:46.317Z,72.34
2022-12-07T06:48:18.741Z,72.54
2022-12-07T06:50:54.665Z,72.80
2022-12-07T06:53:28.016Z,73.00
2022-12-07T06:56:00.698Z,72.54
2022-12-07T06:58:33.192Z,72.27
2022-12-07T07:01:10.617Z,73.05
2022-12-07T07:03:43.425Z,73.37
2022-12-07T07:06:16.492Z,73.11
2022-12-07T07:08:49.029Z,73.06
2022-12-07T07:11:21.959Z,73.33
2022-12-07T07:13:54.961Z,73.16
2022-12-07T07:16:27.515Z,73.81
2022-12-07T07:18:59.818Z,73.46
2022-12-07T07:21:32.181Z,73.59
2022-12-07T07:24:04.792Z,73.19
2022-12-07T07:26:37.130Z,72.76
2022-12-07T07:29:09.611Z,73.38
2022-12-07T07:31:41.977Z,74.31
2022-12-07T07:34:14.172Z,74.07
2022-12-07T07:36:46.514Z,73.92
2022-12-07T07:39:19.195Z,74.06
2022-12-07T07:41:51.567Z,73.64
2022-12-07T07:44:34.783Z,73.71
2022-12-07T07:47:07.985Z,74.39
2022-12-07T07:49:44.594Z,74.05
2022-12-07T07:52:20.511Z,74.34
2022-12-07T07:54:53.090Z,74.67
2022-12-07T07:57:25.551Z,75.41
2022-12-07T07:59:58.375Z,75.41
2022-12-07T08:02:31.226Z,74.92
2022-12-07T08:05:03.566Z,74.74
2022-12-07T08:07:36.109Z,75.07
2022-12-07T08:10:11.811Z,75.39
2022-12-07T08:12:59.149Z,75.27
2022-12-07T08:15:33.362Z,74.60
2022-12-07T08:18:06.042Z,74.96
2022-12-07T08:20:38.949Z,75.57
2022-12-07T08:23:12.427Z,75.76
2022-12-07T08:25:44.897Z,75.88
2022-12-07T08:28:17.923Z,75.61
2022-12-07T08:30:49.998Z,75.25
2022-12-07T08:33:24.164Z,74.97
2022-12-07T08:35:56.819Z,75.37
2022-12-07T08:38:32.101Z,75.35
2022-12-07T08:41:05.968Z,75.24
2022-12-07T08:43:38.981Z,75.35
2022-12-07T08:46:16.113Z,76.02
2022-12-07T08:48:53.069Z,76.06
2022-12-07T08:51:26.025Z,75.77
2022-12-07T08:54:01.266Z,75.66
2022-12-07T08:56:33.740Z,75.39
2022-12-07T08:59:06.625Z,75.23
2022-12-07T09:01:38.900Z,75.25
2022-12-07T09:04:11.265Z,75.54
2022-12-07T09:06:45.399Z,76.03
2022-12-07T09:09:18.159Z,76.27
2022-12-07T09:11:50.582Z,76.28
2022-12-07T09:14:23.006Z,75.79
2022-12-07T09:16:55.479Z,75.69
2022-12-07T09:19:27.442Z,75.68
2022-12-07T09:21:59.404Z,75.49
2022-12-07T09:24:31.469Z,75.54
2022-12-07T09:27:03.635Z,75.73
2022-12-07T09:29:35.700Z,75.77
2022-12-07T09:32:11.417Z,76.32
2022-12-07T09:34:44.391Z,76.76
2022-12-07T09:37:16.506Z,76.64
2022-12-07T09:40:01.883Z,76.44
2022-12-07T09:42:40.834Z,76.15
2022-12-07T09:45:19.255Z,76.12
2022-12-07T09:47:51.490Z,76.28
2022-12-07T09:50:27.038Z,75.70
2022-12-07T09:53:09.850Z,75.81
2022-12-07T09:55:43.474Z,75.91
2022-12-07T09:58:23.198Z,76.29
2022-12-07T10:00:59.461Z,76.29
2022-12-07T10:03:32.756Z,76.22
2022-12-07T10:06:05.548Z,76.00
2022-12-07T10:08:37.807Z,76.00
2022-12-07T10:11:11.712Z,76.03
2022-12-07T10:13:46.754Z,76.23
2022-12-07T10:16:41.671Z,76.10
2022-12-07T10:19:27.024Z,76.84
2022-12-07T10:22:14.340Z,77.02
2022-12-07T10:24:49.381Z,76.78
2022-12-07T10:27:28.818Z,76.59
2022-12-07T10:30:01.830Z,76.34
2022-12-07T10:32:37.476Z,76.75
2022-12-07T10:35:27.977Z,76.39
2022-12-07T10:38:01.758Z,76.44
2022-12-07T10:40:37.704Z,76.21
2022-12-07T10:43:21.251Z,76.35
2022-12-07T10:46:22.202Z,76.92
2022-12-07T10:48:57.658Z,77.18
2022-12-07T10:51:39.561Z,77.03
2022-12-07T10:54:21.521Z,76.73
2022-12-07T10:57:06.083Z,76.09
2022-12-07T10:59:55.453Z,76.13
2022-12-07T11:02:46.244Z,75.82
2022-12-07T11:05:28.356Z,75.97
2022-12-07T11:08:12.389Z,75.71
2022-12-07T11:10:50.509Z,75.79
2022-12-07T11:13:42.747Z,76.62
2022-12-07T11:16:53.521Z,76.57
2022-12-07T11:19:52.543Z,76.19
2022-12-07T11:22:38.608Z,75.62
2022-12-07T11:25:28.943Z,75.09
2022-12-07T11:28:16.842Z,75.25
2022-12-07T11:30:58.606Z,75.03
2022-12-07T11:33:39.418Z,75.01
2022-12-07T11:36:33.482Z,75.09
2022-12-07T11:39:14.453Z,74.76
2022-12-07T11:41:49.794Z,75.22
2022-12-07T11:44:33.724Z,75.62
2022-12-07T11:47:12.666Z,75.58
2022-12-07T11:49:49.848Z,75.15
2022-12-07T11:52:30.311Z,74.69
2022-12-07T11:55:08.211Z,74.40
2022-12-07T11:57:49.494Z,74.36
2022-12-07T12:00:23.368Z,74.17
2022-12-07T12:03:02.661Z,74.03
2022-12-07T12:05:35.108Z,73.75
2022-12-07T12:11:20.813Z,73.57
2022-12-07T12:14:33.037Z,73.30
2022-12-07T12:17:21.979Z,73.48
2022-12-07T12:20:06.941Z,72.81
2022-12-07T12:22:43.004Z,73.25
2022-12-07T12:25:24.595Z,72.87
2022-12-07T12:28:00.446Z,73.14
2022-12-07T12:30:38.347Z,73.66
2022-12-07T12:33:24.953Z,73.58
2022-12-07T12:36:21.623Z,73.36
2022-12-07T12:39:10.191Z,72.65
2022-12-07T12:42:08.222Z,71.80
2022-12-07T12:45:20.324Z,71.90
2022-12-07T12:48:03.346Z,71.56
2022-12-07T12:50:37.561Z,70.94
2022-12-07T12:53:25.805Z,70.96
2022-12-07T12:56:27.565Z,70.66
2022-12-07T12:59:30.453Z,70.27
2022-12-07T13:02:24.300Z,70.31
2022-12-07T13:05:01.300Z,70.91
2022-12-07T13:07:54.775Z,70.74
2022-12-07T13:10:35.854Z,70.90
2022-12-07T13:13:35.771Z,70.80
2022-12-07T13:16:51.418Z,70.91
2022-12-07T13:20:02.984Z,70.75
2022-12-07T13:22:45.441Z,70.54
2022-12-07T13:25:36.071Z,70.57
2022-12-07T13:28:17.130Z,70.63
2022-12-07T13:31:05.208Z,70.87
2022-12-07T13:33:38.204Z,71.32
2022-12-07T13:36:20.153Z,71.97
2022-12-07T13:38:58.588Z,71.85
2022-12-07T13:41:32.249Z,71.95
2022-12-07T13:44:10.891Z,71.71
2022-12-07T13:46:51.562Z,71.06
2022-12-07T13:49:26.575Z,70.56
2022-12-07T13:52:16.372Z,70.61
2022-12-07T13:54:51.074Z,70.49
2022-12-07T13:57:24.186Z,70.31
2022-12-07T13:59:57.295Z,70.14
2022-12-07T14:02:34.874Z,69.93
2022-12-07T14:05:16.358Z,69.86
2022-12-07T14:07:58.810Z,69.69
2022-12-07T14:10:34.308Z,69.68
2022-12-07T14:13:32.691Z,69.46
2022-12-07T14:16:06.030Z,69.52
2022-12-07T14:18:43.055Z,69.47
2022-12-07T14:21:24.385Z,69.47
2022-12-07T14:24:23.447Z,69.76
2022-12-07T14:26:55.614Z,69.57
2022-12-07T14:29:35.562Z,69.82
2022-12-07T14:32:24.010Z,69.59
2022-12-07T14:35:04.542Z,69.68
2022-12-07T14:37:36.946Z,69.26
2022-12-07T14:40:14.893Z,69.57
2022-12-07T14:42:47.939Z,70.30
2022-12-07T14:45:23.587Z,70.72
2022-12-07T14:53:49.867Z,69.35
2022-12-07T14:56:25.504Z,69.28
2022-12-07T14:58:58.695Z,69.08
2022-12-07T15:01:32.196Z,69.04
2022-12-07T15:04:04.845Z,68.84
2022-12-07T15:06:39.654Z,68.62
2022-12-07T15:09:13.378Z,68.59
2022-12-07T15:11:45.779Z,68.35
2022-12-07T15:14:18.264Z,68.49
2022-12-07T15:17:08.447Z,68.19
2022-12-07T15:19:42.249Z,68.39
2022-12-07T15:22:14.514Z,68.43
2022-12-07T15:24:47.400Z,68.41
2022-12-07T15:27:20.284Z,68.26
2022-12-07T15:29:54.915Z,68.42
2022-12-07T15:32:27.127Z,68.47
2022-12-07T15:36:22.515Z,70.48
2022-12-07T15:39:13.610Z,69.00
2022-12-07T15:41:47.006Z,67.88
2022-12-07T15:44:37.297Z,67.13
2022-12-07T15:47:09.565Z,66.66
2022-12-07T15:49:42.141Z,66.36
2022-12-07T15:52:14.209Z,65.61
2022-12-07T15:54:46.376Z,64.94
2022-12-07T15:57:23.731Z,64.63
2022-12-07T15:59:57.671Z,63.91
2022-12-07T16:02:30.653Z,64.05
2022-12-07T16:05:05.633Z,64.37
2022-12-07T16:07:38.286Z,64.34
2022-12-07T16:10:12.645Z,63.59
2022-12-07T16:12:47.422Z,63.60
2022-12-07T16:15:24.233Z,63.03
2022-12-07T16:17:57.179Z,63.46
2022-12-07T16:20:31.348Z,63.42
2022-12-07T16:23:07.134Z,63.29
2022-12-07T16:25:39.530Z,63.10
2022-12-07T16:28:11.482Z,62.88
2022-12-07T16:30:43.645Z,62.93
2022-12-07T16:33:15.812Z,62.64
2022-12-07T16:35:48.081Z,62.59
2022-12-07T16:38:20.351Z,62.48
2022-12-07T16:40:57.024Z,62.43
2022-12-07T16:43:31.893Z,62.02
2022-12-07T16:46:04.383Z,62.18
2022-12-07T16:48:39.307Z,62.30
2022-12-07T16:51:13.783Z,62.41
2022-12-07T16:53:45.949Z,62.61
2022-12-07T16:56:19.652Z,62.46
2022-12-07T16:58:51.825Z,62.15
2022-12-07T17:01:31.463Z,62.33
2022-12-07T17:04:06.595Z,61.98
2022-12-07T17:06:43.124Z,61.69
2022-12-07T17:09:20.934Z,62.15
2022-12-07T17:11:53.653Z,62.01
2022-12-07T17:14:45.580Z,62.15
2022-12-07T17:17:17.751Z,62.52
2022-12-07T17:19:50.153Z,62.35
2022-12-07T17:22:24.975Z,62.11
2022-12-07T17:25:00.046Z,62.09
2022-12-07T17:27:33.644Z,62.30
2022-12-07T17:30:10.212Z,62.66
2022-12-07T17:32:42.731Z,62.75
2022-12-07T17:35:15.204Z,62.82
2022-12-07T17:37:50.882Z,62.37
2022-12-07T17:40:23.636Z,62.31
2022-12-07T17:42:57.443Z,62.08
2022-12-07T17:45:29.588Z,61.73
2022-12-07T17:48:01.777Z,61.64
2022-12-07T17:50:51.452Z,61.79
2022-12-07T17:53:23.925Z,60.91
2022-12-07T17:56:26.869Z,61.50
2022-12-07T17:58:49.792Z,61.34
2022-12-07T18:01:24.151Z,61.73
2022-12-07T18:03:57.077Z,62.08
2022-12-07T18:06:29.349Z,62.20
2022-12-07T18:09:01.711Z,62.49
2022-12-07T18:11:34.390Z,63.18
2022-12-07T18:14:06.864Z,62.88
2022-12-07T18:16:39.714Z,62.80
2022-12-07T18:19:13.712Z,62.75
2022-12-07T18:21:46.751Z,63.00
2022-12-07T18:24:20.651Z,62.74
2022-12-07T18:26:53.535Z,62.80
2022-12-07T18:29:25.602Z,63.12
2022-12-07T18:31:57.610Z,62.89
2022-12-07T18:34:30.787Z,62.98
2022-12-07T18:37:03.133Z,62.71
2022-12-07T18:39:35.296Z,63.15
2022-12-07T18:42:08.790Z,63.31
2022-12-07T18:44:41.374Z,62.80
2022-12-07T18:47:13.436Z,62.88
2022-12-07T18:49:45.605Z,62.88
2022-12-07T18:52:17.667Z,63.08
2022-12-07T18:54:49.870Z,62.90
2022-12-07T18:57:22.005Z,62.43
2022-12-07T18:59:54.374Z,62.56
2022-12-07T19:02:26.588Z,62.87
2022-12-07T19:04:58.810Z,62.95
2022-12-07T19:07:31.387Z,63.35
2022-12-07T19:10:03.563Z,63.46
2022-12-07T19:12:35.865Z,63.91
2022-12-07T19:15:09.717Z,64.25
2022-12-07T19:17:42.275Z,64.29
2022-12-07T19:20:17.502Z,64.84
2022-12-07T19:22:49.612Z,64.81
2022-12-07T19:25:21.779Z,64.89
2022-12-07T19:27:53.945Z,65.27
2022-12-07T19:30:26.016Z,65.14
2022-12-07T19:32:58.383Z,65.49
2022-12-07T19:35:30.654Z,65.73
2022-12-07T19:38:02.821Z,65.96
2022-12-07T19:40:35.296Z,66.18
2022-12-07T19:43:07.463Z,66.14
2022-12-07T19:45:45.581Z,66.60
2022-12-07T19:48:17.839Z,66.61
2022-12-07T19:50:50.420Z,66.78
2022-12-07T19:53:22.483Z,66.76
2022-12-07T19:55:54.543Z,66.82
2022-12-07T19:58:26.814Z,66.94
2022-12-07T20:01:03.327Z,67.14
2022-12-07T20:03:36.067Z,67.20
2022-12-07T20:06:13.403Z,67.09
2022-12-07T20:08:46.748Z,67.30
2022-12-07T20:11:39.498Z,67.22
2022-12-07T20:14:13.814Z,66.59
2022-12-07T20:16:46.142Z,66.77
2022-12-07T20:19:18.763Z,66.48
2022-12-07T20:21:53.079Z,66.25
2022-12-07T20:24:26.815Z,65.76
2022-12-07T20:26:59.162Z,65.56
2022-12-07T20:29:31.223Z,65.74
2022-12-07T20:32:03.900Z,66.04
2022-12-07T20:34:36.065Z,66.30
2022-12-07T20:37:08.646Z,66.40
2022-12-07T20:39:41.424Z,66.15
2022-12-07T20:42:31.307Z,66.30
2022-12-07T20:45:06.405Z,66.20
2022-12-07T20:47:39.959Z,66.57
2022-12-07T20:50:13.264Z,66.55
2022-12-07T20:52:45.609Z,66.55
2022-12-07T20:55:18.185Z,66.86
2022-12-07T20:57:50.456Z,67.04
2022-12-07T21:00:23.529Z,66.75
2022-12-07T21:02:57.392Z,67.04
2022-12-07T21:05:30.028Z,67.01
2022-12-07T21:08:02.149Z,66.81
2022-12-07T21:10:34.464Z,66.83
2022-12-07T21:13:06.631Z,66.81
2022-12-07T21:15:40.772Z,66.94
2022-12-07T21:18:13.015Z,66.84
2022-12-07T21:20:45.283Z,67.07
2022-12-07T21:23:17.781Z,67.01
2022-12-07T21:25:49.824Z,67.03
2022-12-07T21:28:22.198Z,66.98
2022-12-07T21:31:14.597Z,66.58
2022-12-07T21:33:47.938Z,66.66
2022-12-07T21:36:22.087Z,66.71
2022-12-07T21:38:54.455Z,66.52
2022-12-07T21:41:31.398Z,66.44
2022-12-07T21:44:06.539Z,66.37
2022-12-07T21:46:40.656Z,66.06
2022-12-07T21:49:14.964Z,66.13
2022-12-07T21:51:47.573Z,66.26
2022-12-07T21:54:25.452Z,65.91
2022-12-07T21:56:58.531Z,65.67
2022-12-07T21:59:30.507Z,65.86
2022-12-07T22:02:03.017Z,65.92
2022-12-07T22:04:35.443Z,65.84
2022-12-07T22:07:07.611Z,66.02
2022-12-07T22:09:39.981Z,65.92
2022-12-07T22:12:12.252Z,65.77
2022-12-07T22:15:03.871Z,65.81
2022-12-07T22:17:36.505Z,65.65
2022-12-07T22:20:11.155Z,65.38
2022-12-07T22:22:43.757Z,65.17
2022-12-07T22:25:16.540Z,65.22
2022-12-07T22:27:48.602Z,65.33
2022-12-07T22:30:20.771Z,65.34
2022-12-07T22:32:53.716Z,65.12
2022-12-07T22:35:25.820Z,65.25
2022-12-07T22:37:57.884Z,65.35
2022-12-07T22:40:29.897Z,65.30
2022-12-07T22:43:02.526Z,65.25
2022-12-07T22:45:34.708Z,65.51
2022-12-07T22:48:08.710Z,65.18
2022-12-07T22:50:41.791Z,65.15
2022-12-07T22:53:13.779Z,65.28
2022-12-07T22:55:46.025Z,65.34
2022-12-07T22:58:18.700Z,65.33
2022-12-07T23:00:59.062Z,65.24
2022-12-07T23:03:31.127Z,64.82
2022-12-07T23:06:09.870Z,65.17
2022-12-07T23:08:42.038Z,64.93
2022-12-07T23:11:38.671Z,64.98
2022-12-07T23:14:14.611Z,64.52
2022-12-07T23:16:47.684Z,64.82
2022-12-07T23:19:20.586Z,64.94
2022-12-07T23:21:52.651Z,64.91
2022-12-07T23:24:25.534Z,64.95
2022-12-07T23:26:58.114Z,64.62
2022-12-07T23:29:30.485Z,64.65
2022-12-07T23:32:02.839Z,64.73
2022-12-07T23:34:35.309Z,64.66
2022-12-07T23:37:07.805Z,64.69
2022-12-07T23:39:39.970Z,64.80
2022-12-07T23:42:12.550Z,64.84
2022-12-07T23:44:44.612Z,64.99
2022-12-07T23:47:16.824Z,64.94
2022-12-07T23:49:49.255Z,64.95
2022-12-07T23:52:21.421Z,64.93
2022-12-07T23:54:53.896Z,64.97
2022-12-07T23:57:26.064Z,64.96
2022-12-07T23:59:58.229Z,64.93
